createdAt,value
2023-02-26T00:00:58.267Z,0.26
2023-02-26T00:01:58.728Z,0.23
2023-02-26T00:02:58.370Z,0.15
2023-02-26T00:03:58.151Z,0.22
2023-02-26T00:04:58.110Z,0.15
2023-02-26T00:05:58.106Z,0.11
2023-02-26T00:07:02.183Z,0.15
2023-02-26T00:07:58.004Z,0.15
2023-02-26T00:08:58.201Z,0.07
2023-02-26T00:09:57.932Z,0.08
2023-02-26T00:10:57.870Z,0.11
2023-02-26T00:11:58.309Z,0.05
2023-02-26T00:12:57.925Z,0.03
2023-02-26T00:13:58.257Z,0.04
2023-02-26T00:14:57.520Z,0.04
2023-02-26T00:15:57.731Z,0.05
2023-02-26T00:16:58.096Z,0.07
2023-02-26T00:17:59.347Z,0.07
2023-02-26T00:18:57.558Z,0.03
2023-02-26T00:19:57.542Z,0.08
2023-02-26T00:20:57.504Z,0
2023-02-26T00:21:57.454Z,0.03
2023-02-26T00:22:57.440Z,0.01
2023-02-26T00:23:57.382Z,0.05
2023-02-26T00:24:57.377Z,0.01
2023-02-26T00:25:57.362Z,-0.06
2023-02-26T00:26:57.019Z,0
2023-02-26T00:27:57.230Z,-0.08
2023-02-26T00:28:57.252Z,-0.06
2023-02-26T00:29:57.145Z,-0.03
2023-02-26T00:30:57.240Z,0.01
2023-02-26T00:31:57.365Z,0.07
2023-02-26T00:32:57.060Z,0.04
2023-02-26T00:33:57.058Z,0.04
2023-02-26T00:34:56.974Z,0.01
2023-02-26T00:35:56.960Z,0.03
2023-02-26T00:36:56.913Z,0.01
2023-02-26T00:37:56.861Z,0.04
2023-02-26T00:38:56.804Z,0.03
2023-02-26T00:39:56.772Z,-0.03
2023-02-26T00:40:56.729Z,-0.03
2023-02-26T00:41:56.748Z,0.04
2023-02-26T00:42:56.684Z,0.05
2023-02-26T00:43:56.622Z,-0.06
2023-02-26T00:44:56.585Z,-0.06
2023-02-26T00:45:56.692Z,0.01
2023-02-26T00:46:56.499Z,0.04
2023-02-26T00:47:56.474Z,0.01
2023-02-26T00:48:56.470Z,0.05
2023-02-26T00:49:56.449Z,-0.03
2023-02-26T00:50:56.356Z,0.04
2023-02-26T00:51:56.348Z,0
2023-02-26T00:52:56.312Z,0.04
2023-02-26T00:53:56.235Z,0.03
2023-02-26T00:54:55.969Z,0
2023-02-26T00:55:55.926Z,0.04
2023-02-26T00:56:56.130Z,0.01
2023-02-26T00:57:56.129Z,0.04
2023-02-26T00:58:56.085Z,0.03
2023-02-26T00:59:56.014Z,0.05
2023-02-26T01:00:55.982Z,0.03
2023-02-26T01:01:55.992Z,0.03
2023-02-26T01:02:55.908Z,0.03
2023-02-26T01:03:56.024Z,-0.03
2023-02-26T01:04:55.864Z,0
2023-02-26T01:05:55.559Z,0.03
2023-02-26T01:06:55.769Z,-0.03
2023-02-26T01:07:55.706Z,-0.07
2023-02-26T01:08:55.724Z,-0.03
2023-02-26T01:09:55.652Z,-0.03
2023-02-26T01:10:55.597Z,-0.03
2023-02-26T01:11:55.566Z,-0.08
2023-02-26T01:12:55.520Z,0
2023-02-26T01:13:55.517Z,-0.02
2023-02-26T01:14:55.507Z,-0.03
2023-02-26T01:15:55.578Z,-0.08
2023-02-26T01:16:55.379Z,-0.02
2023-02-26T01:17:55.367Z,0.01
2023-02-26T01:18:55.320Z,0.05
2023-02-26T01:19:55.280Z,0.01
2023-02-26T01:20:55.344Z,0.01
2023-02-26T01:21:55.185Z,-0.02
2023-02-26T01:22:55.182Z,0.04
2023-02-26T01:23:55.120Z,0.07
2023-02-26T01:24:55.116Z,0.04
2023-02-26T01:25:55.034Z,0.07
2023-02-26T01:26:54.982Z,0.01
2023-02-26T01:27:54.973Z,-0.03
2023-02-26T01:28:54.922Z,-0.03
2023-02-26T01:29:54.908Z,-0.07
2023-02-26T01:30:55.278Z,-0.08
2023-02-26T01:31:55.587Z,-0.1
2023-02-26T01:32:54.933Z,-0.14
2023-02-26T01:33:54.732Z,-0.14
2023-02-26T01:34:54.689Z,-0.1
2023-02-26T01:35:54.685Z,-0.1
2023-02-26T01:36:54.759Z,0
2023-02-26T01:37:54.573Z,-0.17
2023-02-26T01:38:54.540Z,-0.15
2023-02-26T01:39:54.501Z,-0.02
2023-02-26T01:40:54.489Z,-0.18
2023-02-26T01:41:54.434Z,-0.1
2023-02-26T01:42:54.403Z,-0.18
2023-02-26T01:43:54.381Z,-0.17
2023-02-26T01:44:54.402Z,-0.13
2023-02-26T01:45:54.298Z,-0.17
2023-02-26T01:46:54.442Z,-0.14
2023-02-26T01:47:54.208Z,-0.11
2023-02-26T01:48:54.160Z,-0.14
2023-02-26T01:49:54.128Z,-0.15
2023-02-26T01:50:54.084Z,-0.21
2023-02-26T01:51:54.111Z,-0.17
2023-02-26T01:52:54.121Z,-0.18
2023-02-26T01:53:53.981Z,-0.2
2023-02-26T01:54:53.936Z,-0.2
2023-02-26T01:55:53.975Z,-0.2
2023-02-26T01:56:53.892Z,-0.17
2023-02-26T01:57:53.990Z,-0.17
2023-02-26T01:58:53.787Z,-0.25
2023-02-26T01:59:53.836Z,-0.2
2023-02-26T02:00:53.795Z,-0.2
2023-02-26T02:01:53.722Z,-0.17
2023-02-26T02:02:54.294Z,-0.23
2023-02-26T02:03:53.604Z,-0.25
2023-02-26T02:04:53.605Z,-0.23
2023-02-26T02:05:53.733Z,-0.23
2023-02-26T02:06:53.531Z,-0.25
2023-02-26T02:07:53.513Z,-0.26
2023-02-26T02:08:53.529Z,-0.2
2023-02-26T02:09:53.398Z,-0.23
2023-02-26T02:10:53.344Z,-0.28
2023-02-26T02:11:53.287Z,-0.25
2023-02-26T02:12:53.276Z,-0.29
2023-02-26T02:13:53.230Z,-0.29
2023-02-26T02:14:53.197Z,-0.23
2023-02-26T02:15:53.139Z,-0.18
2023-02-26T02:16:53.305Z,-0.28
2023-02-26T02:17:53.196Z,-0.23
2023-02-26T02:18:53.099Z,-0.23
2023-02-26T02:19:52.981Z,-0.25
2023-02-26T02:20:53.027Z,-0.29
2023-02-26T02:21:52.908Z,-0.28
2023-02-26T02:22:52.882Z,-0.21
2023-02-26T02:23:53.079Z,-0.28
2023-02-26T02:24:52.886Z,-0.21
2023-02-26T02:25:52.755Z,-0.26
2023-02-26T02:26:52.736Z,-0.31
2023-02-26T02:27:52.810Z,-0.25
2023-02-26T02:28:52.683Z,-0.26
2023-02-26T02:29:52.617Z,-0.28
2023-02-26T02:30:52.645Z,-0.25
2023-02-26T02:31:53.292Z,-0.2
2023-02-26T02:32:52.861Z,-0.29
2023-02-26T02:33:52.471Z,-0.26
2023-02-26T02:34:52.401Z,-0.25
2023-02-26T02:35:52.372Z,-0.32
2023-02-26T02:36:52.343Z,-0.26
2023-02-26T02:37:52.287Z,-0.29
2023-02-26T02:38:52.266Z,-0.28
2023-02-26T02:39:52.014Z,-0.32
2023-02-26T02:40:52.224Z,-0.36
2023-02-26T02:41:52.157Z,-0.34
2023-02-26T02:42:52.116Z,-0.36
2023-02-26T02:43:52.061Z,-0.21
2023-02-26T02:44:52.050Z,-0.21
2023-02-26T02:45:52.152Z,-0.25
2023-02-26T02:46:52.156Z,-0.15
2023-02-26T02:47:51.907Z,-0.18
2023-02-26T02:48:52.015Z,-0.31
2023-02-26T02:49:51.852Z,-0.28
2023-02-26T02:50:51.795Z,-0.28
2023-02-26T02:51:51.917Z,-0.2
2023-02-26T02:52:51.724Z,-0.29
2023-02-26T02:53:51.689Z,-0.32
2023-02-26T02:54:51.678Z,-0.34
2023-02-26T02:55:51.606Z,-0.31
2023-02-26T02:56:51.617Z,-0.39
2023-02-26T02:57:51.529Z,-0.44
2023-02-26T02:58:51.505Z,-0.41
2023-02-26T02:59:51.460Z,-0.34
2023-02-26T03:00:51.615Z,-0.47
2023-02-26T03:01:51.369Z,-0.53
2023-02-26T03:02:51.570Z,-0.49
2023-02-26T03:03:51.302Z,-0.47
2023-02-26T03:04:51.265Z,-0.53
2023-02-26T03:05:51.367Z,-0.5
2023-02-26T03:06:51.190Z,-0.5
2023-02-26T03:07:51.235Z,-0.59
2023-02-26T03:08:51.157Z,-0.57
2023-02-26T03:09:51.081Z,-0.57
2023-02-26T03:10:51.074Z,-0.61
2023-02-26T03:11:51.017Z,-0.61
2023-02-26T03:12:50.986Z,-0.54
2023-02-26T03:13:50.930Z,-0.65
2023-02-26T03:14:50.886Z,-0.67
2023-02-26T03:15:51.574Z,-0.64
2023-02-26T03:16:51.007Z,-0.72
2023-02-26T03:17:50.768Z,-0.64
2023-02-26T03:18:50.734Z,-0.71
2023-02-26T03:19:50.694Z,-0.65
2023-02-26T03:20:50.736Z,-0.62
2023-02-26T03:21:50.667Z,-0.71
2023-02-26T03:22:50.572Z,-0.71
2023-02-26T03:23:50.555Z,-0.65
2023-02-26T03:24:50.518Z,-0.62
2023-02-26T03:25:50.476Z,-0.68
2023-02-26T03:26:50.425Z,-0.72
2023-02-26T03:27:50.391Z,-0.67
2023-02-26T03:28:50.374Z,-0.61
2023-02-26T03:29:50.315Z,-0.72
2023-02-26T03:30:50.399Z,-0.68
2023-02-26T03:31:50.708Z,-0.75
2023-02-26T03:32:50.224Z,-0.74
2023-02-26T03:33:50.164Z,-0.72
2023-02-26T03:34:50.123Z,-0.71
2023-02-26T03:35:50.134Z,-0.71
2023-02-26T03:36:50.041Z,-0.77
2023-02-26T03:37:49.806Z,-0.72
2023-02-26T03:38:49.976Z,-0.75
2023-02-26T03:39:49.941Z,-0.67
2023-02-26T03:40:49.893Z,-0.78
2023-02-26T03:41:49.856Z,-0.78
2023-02-26T03:42:49.810Z,-0.78
2023-02-26T03:43:49.534Z,-0.74
2023-02-26T03:44:49.789Z,-0.86
2023-02-26T03:45:49.915Z,-0.8
2023-02-26T03:46:49.702Z,-0.91
2023-02-26T03:47:49.629Z,-0.77
2023-02-26T03:48:49.742Z,-0.74
2023-02-26T03:49:49.556Z,-0.86
2023-02-26T03:50:49.514Z,-0.86
2023-02-26T03:51:49.482Z,-0.77
2023-02-26T03:52:49.428Z,-0.83
2023-02-26T03:53:49.419Z,-0.85
2023-02-26T03:54:49.366Z,-0.85
2023-02-26T03:55:49.333Z,-0.91
2023-02-26T03:56:49.268Z,-1.04
2023-02-26T03:57:49.236Z,-1.02
2023-02-26T03:58:49.192Z,-1.01
2023-02-26T03:59:49.311Z,-1.04
2023-02-26T04:00:48.919Z,-1.04
2023-02-26T04:01:49.093Z,-1.02
2023-02-26T04:02:49.045Z,-1.09
2023-02-26T04:03:49.017Z,-1.05
2023-02-26T04:04:49.022Z,-1.05
2023-02-26T04:05:48.928Z,-1.08
2023-02-26T04:06:48.943Z,-1.09
2023-02-26T04:07:48.845Z,-1.11
2023-02-26T04:08:48.813Z,-1.04
2023-02-26T04:09:48.852Z,-1.02
2023-02-26T04:10:48.757Z,-1.07
2023-02-26T04:11:48.735Z,-1.01
2023-02-26T04:12:48.666Z,-1.09
2023-02-26T04:13:48.635Z,-1.04
2023-02-26T04:14:48.581Z,-0.97
2023-02-26T04:15:48.558Z,-0.99
2023-02-26T04:16:48.542Z,-1.07
2023-02-26T04:17:48.471Z,-0.94
2023-02-26T04:18:48.433Z,-0.99
2023-02-26T04:19:48.403Z,-1.01
2023-02-26T04:20:48.389Z,-0.99
2023-02-26T04:21:48.318Z,-0.91
2023-02-26T04:22:48.293Z,-0.85
2023-02-26T04:23:48.288Z,-0.83
2023-02-26T04:24:48.214Z,-0.94
2023-02-26T04:25:48.208Z,-0.85
2023-02-26T04:26:48.127Z,-0.82
2023-02-26T04:27:48.087Z,-0.9
2023-02-26T04:28:48.052Z,-0.85
2023-02-26T04:29:48.007Z,-0.85
2023-02-26T04:30:48.188Z,-0.91
2023-02-26T04:31:48.528Z,-1.02
2023-02-26T04:32:47.982Z,-0.91
2023-02-26T04:33:47.853Z,-1.04
2023-02-26T04:34:47.814Z,-1.01
2023-02-26T04:35:47.768Z,-1.02
2023-02-26T04:36:47.757Z,-1.01
2023-02-26T04:37:47.477Z,-0.85
2023-02-26T04:38:47.674Z,-0.96
2023-02-26T04:39:47.631Z,-1.04
2023-02-26T04:40:47.571Z,-0.9
2023-02-26T04:41:47.559Z,-0.86
2023-02-26T04:42:49.748Z,-1.02
2023-02-26T04:43:47.472Z,-1.01
2023-02-26T04:44:47.414Z,-1.05
2023-02-26T04:45:47.366Z,-0.93
2023-02-26T04:46:47.519Z,-1.02
2023-02-26T04:47:47.300Z,-1.04
2023-02-26T04:48:47.057Z,-1.01
2023-02-26T04:49:47.239Z,-1.01
2023-02-26T04:50:47.259Z,-0.97
2023-02-26T04:51:47.274Z,-1.08
2023-02-26T04:52:47.137Z,-1.08
2023-02-26T04:53:47.080Z,-1.05
2023-02-26T04:54:47.039Z,-0.97
2023-02-26T04:55:46.995Z,-1.11
2023-02-26T04:56:46.961Z,-1.08
2023-02-26T04:57:46.937Z,-1.01
2023-02-26T04:58:46.880Z,-0.99
2023-02-26T04:59:46.607Z,-1.12
2023-02-26T05:00:46.799Z,-1.02
2023-02-26T05:01:47.075Z,-0.97
2023-02-26T05:02:46.760Z,-1.02
2023-02-26T05:03:46.691Z,-1.14
2023-02-26T05:04:46.846Z,-1.11
2023-02-26T05:05:46.624Z,-1.11
2023-02-26T05:06:46.574Z,-1.15
2023-02-26T05:07:46.552Z,-1.14
2023-02-26T05:08:46.519Z,-1.09
2023-02-26T05:09:46.467Z,-1.23
2023-02-26T05:10:46.423Z,-1.12
2023-02-26T05:11:46.377Z,-1.27
2023-02-26T05:12:46.340Z,-1.17
2023-02-26T05:13:46.341Z,-1.15
2023-02-26T05:14:46.275Z,-1.11
2023-02-26T05:15:46.335Z,-1.23
2023-02-26T05:16:46.201Z,-1.26
2023-02-26T05:17:46.154Z,-1.11
2023-02-26T05:18:46.104Z,-1.25
2023-02-26T05:19:46.084Z,-1.29
2023-02-26T05:20:46.093Z,-1.26
2023-02-26T05:21:45.989Z,-1.23
2023-02-26T05:22:45.965Z,-1.27
2023-02-26T05:23:45.921Z,-1.26
2023-02-26T05:24:45.668Z,-1.27
2023-02-26T05:25:45.843Z,-1.32
2023-02-26T05:26:45.803Z,-1.3
2023-02-26T05:27:45.768Z,-1.32
2023-02-26T05:28:45.513Z,-1.4
2023-02-26T05:29:45.715Z,-1.41
2023-02-26T05:30:45.598Z,-1.33
2023-02-26T05:31:46.172Z,-1.33
2023-02-26T05:32:45.583Z,-1.43
2023-02-26T05:33:45.532Z,-1.46
2023-02-26T05:34:45.507Z,-1.53
2023-02-26T05:35:45.489Z,-1.43
2023-02-26T05:36:45.531Z,-1.43
2023-02-26T05:37:45.381Z,-1.38
2023-02-26T05:38:45.326Z,-1.5
2023-02-26T05:39:45.294Z,-1.46
2023-02-26T05:40:45.278Z,-1.53
2023-02-26T05:41:45.212Z,-1.35
2023-02-26T05:42:45.197Z,-1.41
2023-02-26T05:43:45.150Z,-1.44
2023-02-26T05:44:45.123Z,-1.43
2023-02-26T05:45:45.097Z,-1.35
2023-02-26T05:46:45.199Z,-1.38
2023-02-26T05:47:45.199Z,-1.46
2023-02-26T05:48:48.049Z,-1.46
2023-02-26T05:49:44.899Z,-1.43
2023-02-26T05:50:44.870Z,-1.48
2023-02-26T05:51:44.817Z,-1.43
2023-02-26T05:52:44.852Z,-1.46
2023-02-26T05:53:44.761Z,-1.46
2023-02-26T05:54:44.718Z,-1.4
2023-02-26T05:55:44.685Z,-1.38
2023-02-26T05:56:44.666Z,-1.44
2023-02-26T05:57:44.600Z,-1.5
2023-02-26T05:58:44.547Z,-1.53
2023-02-26T05:59:44.292Z,-1.44
2023-02-26T06:00:44.227Z,-1.46
2023-02-26T06:01:44.659Z,-1.46
2023-02-26T06:02:44.535Z,-1.43
2023-02-26T06:03:44.362Z,-1.5
2023-02-26T06:04:44.098Z,-1.48
2023-02-26T06:05:44.285Z,-1.46
2023-02-26T06:06:44.276Z,-1.44
2023-02-26T06:07:44.287Z,-1.38
2023-02-26T06:08:44.249Z,-1.46
2023-02-26T06:09:44.119Z,-1.53
2023-02-26T06:10:44.117Z,-1.53
2023-02-26T06:11:44.043Z,-1.61
2023-02-26T06:12:44.032Z,-1.44
2023-02-26T06:13:43.970Z,-1.5
2023-02-26T06:14:43.926Z,-1.53
2023-02-26T06:15:43.899Z,-1.54
2023-02-26T06:16:44.072Z,-1.48
2023-02-26T06:17:45.620Z,-1.58
2023-02-26T06:18:43.772Z,-1.51
2023-02-26T06:19:43.726Z,-1.61
2023-02-26T06:20:43.699Z,-1.61
2023-02-26T06:21:43.653Z,-1.58
2023-02-26T06:22:43.631Z,-1.65
2023-02-26T06:23:43.572Z,-1.51
2023-02-26T06:24:43.319Z,-1.53
2023-02-26T06:25:43.517Z,-1.48
2023-02-26T06:26:43.468Z,-1.44
2023-02-26T06:27:43.425Z,-1.46
2023-02-26T06:28:43.404Z,-1.5
2023-02-26T06:29:43.348Z,-1.51
2023-02-26T06:30:43.426Z,-1.51
2023-02-26T06:31:43.893Z,-1.64
2023-02-26T06:32:43.394Z,-1.51
2023-02-26T06:33:43.232Z,-1.56
2023-02-26T06:34:43.143Z,-1.58
2023-02-26T06:35:43.112Z,-1.64
2023-02-26T06:36:43.162Z,-1.54
2023-02-26T06:37:43.045Z,-1.62
2023-02-26T06:38:43.004Z,-1.62
2023-02-26T06:39:42.975Z,-1.71
2023-02-26T06:40:42.947Z,-1.69
2023-02-26T06:41:42.888Z,-1.71
2023-02-26T06:42:42.851Z,-1.66
2023-02-26T06:43:42.798Z,-1.69
2023-02-26T06:44:42.543Z,-1.68
2023-02-26T06:45:42.977Z,-1.66
2023-02-26T06:46:42.751Z,-1.65
2023-02-26T06:47:42.666Z,-1.68
2023-02-26T06:48:42.636Z,-1.65
2023-02-26T06:49:42.598Z,-1.66
2023-02-26T06:50:42.543Z,-1.51
2023-02-26T06:51:42.492Z,-1.59
2023-02-26T06:52:42.442Z,-1.48
2023-02-26T06:53:42.408Z,-1.46
2023-02-26T06:54:42.383Z,-1.44
2023-02-26T06:55:42.344Z,-1.44
2023-02-26T06:56:42.347Z,-1.43
2023-02-26T06:57:42.293Z,-1.37
2023-02-26T06:58:42.213Z,-1.38
2023-02-26T06:59:42.254Z,-1.38
2023-02-26T07:00:42.176Z,-1.41
2023-02-26T07:01:42.109Z,-1.33
2023-02-26T07:02:42.253Z,-1.38
2023-02-26T07:03:42.025Z,-1.43
2023-02-26T07:04:41.983Z,-1.37
2023-02-26T07:05:42.007Z,-1.38
2023-02-26T07:06:42.715Z,-1.33
2023-02-26T07:07:41.867Z,-1.37
2023-02-26T07:08:41.824Z,-1.37
2023-02-26T07:09:41.814Z,-1.38
2023-02-26T07:10:41.759Z,-1.38
2023-02-26T07:11:41.716Z,-1.3
2023-02-26T07:12:41.702Z,-1.23
2023-02-26T07:13:41.648Z,-1.27
2023-02-26T07:14:41.600Z,-1.27
2023-02-26T07:15:41.552Z,-1.26
2023-02-26T07:16:41.673Z,-1.19
2023-02-26T07:17:41.493Z,-1.08
2023-02-26T07:18:41.457Z,-1.14
2023-02-26T07:19:41.413Z,-1.05
2023-02-26T07:20:41.360Z,-1.05
2023-02-26T07:21:41.377Z,-1.01
2023-02-26T07:22:41.282Z,-1.08
2023-02-26T07:23:41.250Z,-1.02
2023-02-26T07:24:41.209Z,-1.11
2023-02-26T07:25:41.179Z,-0.96
2023-02-26T07:26:41.138Z,-1.07
2023-02-26T07:27:43.422Z,-1.12
2023-02-26T07:28:40.871Z,-1.11
2023-02-26T07:29:41.021Z,-0.94
2023-02-26T07:30:41.279Z,-1.17
2023-02-26T07:31:41.408Z,-1.02
2023-02-26T07:32:41.004Z,-1.15
2023-02-26T07:33:40.894Z,-1.14
2023-02-26T07:34:40.840Z,-1.02
2023-02-26T07:35:40.788Z,-1.08
2023-02-26T07:36:40.756Z,-1.02
2023-02-26T07:37:40.742Z,-1.02
2023-02-26T07:38:40.686Z,-1.07
2023-02-26T07:39:40.628Z,-1.05
2023-02-26T07:40:40.595Z,-1.04
2023-02-26T07:41:40.564Z,-1.02
2023-02-26T07:42:40.526Z,-1.11
2023-02-26T07:43:40.480Z,-1.11
2023-02-26T07:44:40.483Z,-1.17
2023-02-26T07:45:40.406Z,-0.97
2023-02-26T07:46:40.614Z,-1.02
2023-02-26T07:47:40.358Z,-1.04
2023-02-26T07:48:40.408Z,-1.08
2023-02-26T07:49:40.249Z,-1.08
2023-02-26T07:50:40.224Z,-1.12
2023-02-26T07:51:40.195Z,-0.94
2023-02-26T07:52:40.125Z,-1.02
2023-02-26T07:53:40.114Z,-1.02
2023-02-26T07:54:40.126Z,-0.97
2023-02-26T07:55:40.019Z,-1.04
2023-02-26T07:56:40.029Z,-0.91
2023-02-26T07:57:39.958Z,-1.01
2023-02-26T07:58:39.893Z,-0.83
2023-02-26T07:59:39.867Z,-0.91
2023-02-26T08:00:39.853Z,-0.9
2023-02-26T08:01:40.017Z,-0.8
2023-02-26T08:02:39.803Z,-0.8
2023-02-26T08:03:39.708Z,-0.72
2023-02-26T08:04:39.982Z,-0.72
2023-02-26T08:05:39.644Z,-0.72
2023-02-26T08:06:39.628Z,-0.68
2023-02-26T08:07:39.551Z,-0.65
2023-02-26T08:08:39.538Z,-0.65
2023-02-26T08:09:39.513Z,-0.64
2023-02-26T08:10:41.724Z,-0.68
2023-02-26T08:11:39.402Z,-0.59
2023-02-26T08:12:39.543Z,-0.49
2023-02-26T08:13:39.378Z,-0.61
2023-02-26T08:14:39.298Z,-0.49
2023-02-26T08:15:39.460Z,-0.44
2023-02-26T08:16:39.249Z,-0.43
2023-02-26T08:17:39.192Z,-0.38
2023-02-26T08:18:39.127Z,-0.38
2023-02-26T08:19:39.114Z,-0.35
2023-02-26T08:20:39.093Z,-0.35
2023-02-26T08:21:39.092Z,-0.31
2023-02-26T08:22:39.029Z,-0.31
2023-02-26T08:23:38.943Z,-0.23
2023-02-26T08:24:38.910Z,-0.25
2023-02-26T08:25:38.945Z,-0.2
2023-02-26T08:26:38.579Z,-0.21
2023-02-26T08:27:38.838Z,-0.18
2023-02-26T08:28:38.754Z,-0.11
2023-02-26T08:29:38.724Z,-0.2
2023-02-26T08:30:38.752Z,-0.17
2023-02-26T08:31:38.965Z,-0.13
2023-02-26T08:32:38.842Z,-0.06
2023-02-26T08:33:38.569Z,-0.06
2023-02-26T08:34:38.541Z,0.04
2023-02-26T08:35:38.493Z,0.03
2023-02-26T08:36:38.481Z,0.03
2023-02-26T08:37:38.408Z,0.07
2023-02-26T08:38:38.374Z,0.07
2023-02-26T08:39:38.462Z,0.12
2023-02-26T08:40:38.390Z,0.15
2023-02-26T08:41:38.294Z,0.22
2023-02-26T08:42:38.237Z,0.19
2023-02-26T08:43:38.197Z,0.29
2023-02-26T08:44:38.157Z,0.29
2023-02-26T08:45:38.107Z,0.26
2023-02-26T08:46:38.217Z,0.34
2023-02-26T08:47:57.335Z,0.4
2023-02-26T08:48:38.030Z,0.49
2023-02-26T08:49:37.964Z,0.49
2023-02-26T08:50:37.948Z,0.49
2023-02-26T08:51:37.899Z,0.49
2023-02-26T08:52:37.884Z,0.56
2023-02-26T08:53:37.813Z,0.65
2023-02-26T08:54:37.777Z,0.76
2023-02-26T08:55:37.739Z,0.7
2023-02-26T08:56:37.697Z,0.7
2023-02-26T08:57:37.712Z,0.77
2023-02-26T08:58:37.627Z,0.78
2023-02-26T08:59:37.591Z,0.78
2023-02-26T09:00:37.546Z,0.84
2023-02-26T09:01:37.747Z,0.76
2023-02-26T09:02:37.542Z,0.78
2023-02-26T09:03:37.491Z,0.8
2023-02-26T09:04:37.436Z,0.77
2023-02-26T09:05:37.364Z,0.81
2023-02-26T09:06:37.094Z,0.92
2023-02-26T09:07:37.296Z,0.87
2023-02-26T09:08:37.277Z,0.95
2023-02-26T09:09:37.238Z,0.91
2023-02-26T09:10:37.181Z,0.95
2023-02-26T09:11:37.204Z,0.94
2023-02-26T09:12:37.100Z,1.01
2023-02-26T09:13:37.099Z,0.98
2023-02-26T09:14:37.033Z,0.96
2023-02-26T09:15:37.024Z,1.02
2023-02-26T09:16:37.279Z,1.04
2023-02-26T09:17:36.684Z,1.06
2023-02-26T09:18:36.892Z,1.1
2023-02-26T09:19:36.994Z,1.08
2023-02-26T09:20:36.818Z,1.05
2023-02-26T09:21:36.799Z,1.14
2023-02-26T09:22:36.759Z,1.16
2023-02-26T09:23:36.715Z,1.14
2023-02-26T09:24:36.759Z,1.24
2023-02-26T09:25:36.645Z,1.26
2023-02-26T09:26:36.363Z,1.28
2023-02-26T09:27:36.557Z,1.34
2023-02-26T09:28:36.818Z,1.32
2023-02-26T09:29:36.502Z,1.35
2023-02-26T09:30:36.471Z,1.35
2023-02-26T09:31:37.024Z,1.44
2023-02-26T09:32:36.904Z,1.49
2023-02-26T09:33:36.384Z,1.44
2023-02-26T09:34:36.290Z,1.53
2023-02-26T09:35:36.292Z,1.55
2023-02-26T09:36:36.231Z,1.56
2023-02-26T09:37:36.186Z,1.66
2023-02-26T09:38:36.141Z,1.63
2023-02-26T09:39:36.112Z,1.7
2023-02-26T09:40:36.104Z,1.62
2023-02-26T09:41:36.034Z,1.77
2023-02-26T09:42:36.011Z,1.7
2023-02-26T09:43:35.978Z,1.66
2023-02-26T09:44:35.919Z,1.6
2023-02-26T09:45:36.031Z,1.76
2023-02-26T09:46:35.859Z,1.8
2023-02-26T09:47:35.822Z,1.81
2023-02-26T09:48:35.778Z,1.92
2023-02-26T09:49:35.758Z,1.88
2023-02-26T09:50:35.702Z,1.87
2023-02-26T09:51:35.689Z,1.97
2023-02-26T09:52:35.629Z,1.97
2023-02-26T09:53:35.620Z,2.02
2023-02-26T09:54:35.563Z,1.92
2023-02-26T09:55:35.528Z,1.97
2023-02-26T09:56:35.549Z,2.02
2023-02-26T09:57:35.450Z,2.06
2023-02-26T09:58:35.428Z,1.99
2023-02-26T09:59:35.439Z,2.02
2023-02-26T10:00:35.375Z,1.94
2023-02-26T10:01:35.632Z,1.99
2023-02-26T10:02:35.266Z,2.04
2023-02-26T10:03:35.242Z,1.97
2023-02-26T10:04:35.380Z,2.06
2023-02-26T10:05:35.181Z,2
2023-02-26T10:06:35.166Z,1.94
2023-02-26T10:07:35.139Z,2.04
2023-02-26T10:08:35.054Z,1.97
2023-02-26T10:09:35.067Z,1.97
2023-02-26T10:10:37.540Z,1.97
2023-02-26T10:11:34.950Z,2.07
2023-02-26T10:12:34.935Z,2.08
2023-02-26T10:13:38.573Z,2.11
2023-02-26T10:14:34.840Z,2.17
2023-02-26T10:15:34.809Z,2.25
2023-02-26T10:16:35.714Z,2.31
2023-02-26T10:17:34.775Z,2.26
2023-02-26T10:18:34.696Z,2.28
2023-02-26T10:19:34.696Z,2.29
2023-02-26T10:20:34.822Z,2.24
2023-02-26T10:21:34.480Z,2.26
2023-02-26T10:22:34.582Z,2.26
2023-02-26T10:23:34.313Z,2.25
2023-02-26T10:24:34.474Z,2.39
2023-02-26T10:25:34.454Z,2.31
2023-02-26T10:26:34.408Z,2.43
2023-02-26T10:27:34.168Z,2.46
2023-02-26T10:28:34.392Z,2.56
2023-02-26T10:29:34.341Z,2.64
2023-02-26T10:30:34.371Z,2.57
2023-02-26T10:31:34.816Z,2.6
2023-02-26T10:32:34.646Z,2.61
2023-02-26T10:33:34.175Z,2.6
2023-02-26T10:34:34.125Z,2.53
2023-02-26T10:35:34.079Z,2.57
2023-02-26T10:36:34.044Z,2.6
2023-02-26T10:37:34.021Z,2.67
2023-02-26T10:38:33.982Z,2.72
2023-02-26T10:39:33.964Z,2.71
2023-02-26T10:40:33.983Z,2.79
2023-02-26T10:41:33.981Z,2.79
2023-02-26T10:42:33.849Z,2.85
2023-02-26T10:43:33.555Z,2.82
2023-02-26T10:44:33.789Z,2.77
2023-02-26T10:45:33.749Z,2.74
2023-02-26T10:46:33.697Z,2.72
2023-02-26T10:47:33.658Z,2.64
2023-02-26T10:48:33.370Z,2.65
2023-02-26T10:49:33.629Z,2.67
2023-02-26T10:50:33.303Z,2.71
2023-02-26T10:51:33.784Z,2.77
2023-02-26T10:52:33.470Z,2.72
2023-02-26T10:53:33.439Z,2.69
2023-02-26T10:54:33.407Z,2.86
2023-02-26T10:55:33.404Z,2.83
2023-02-26T10:56:33.084Z,2.85
2023-02-26T10:57:33.296Z,2.83
2023-02-26T10:58:33.259Z,2.79
2023-02-26T10:59:33.248Z,2.77
2023-02-26T11:00:33.209Z,2.83
2023-02-26T11:01:33.973Z,2.8
2023-02-26T11:02:33.241Z,2.74
2023-02-26T11:03:33.078Z,2.86
2023-02-26T11:04:33.069Z,2.95
2023-02-26T11:05:33.326Z,2.92
2023-02-26T11:06:32.977Z,2.87
2023-02-26T11:07:34.779Z,2.9
2023-02-26T11:08:32.921Z,2.87
2023-02-26T11:09:32.883Z,2.89
2023-02-26T11:10:32.842Z,3.01
2023-02-26T11:11:33.010Z,3.03
2023-02-26T11:12:32.765Z,3.19
2023-02-26T11:13:32.733Z,3.23
2023-02-26T11:14:35.512Z,3.31
2023-02-26T11:15:32.830Z,3.34
2023-02-26T11:16:32.657Z,3.4
2023-02-26T11:17:32.665Z,3.36
2023-02-26T11:18:32.354Z,3.47
2023-02-26T11:19:32.524Z,3.44
2023-02-26T11:20:32.506Z,3.44
2023-02-26T11:21:33.022Z,3.4
2023-02-26T11:22:32.449Z,3.44
2023-02-26T11:23:32.393Z,3.4
2023-02-26T11:24:32.389Z,3.37
2023-02-26T11:25:33.557Z,3.37
2023-02-26T11:26:32.274Z,3.36
2023-02-26T11:27:32.033Z,3.47
2023-02-26T11:28:32.212Z,3.44
2023-02-26T11:29:32.170Z,3.44
2023-02-26T11:30:32.302Z,3.55
2023-02-26T11:31:33.917Z,3.65
2023-02-26T11:32:32.282Z,3.77
2023-02-26T11:33:32.037Z,3.81
2023-02-26T11:34:32.012Z,3.94
2023-02-26T11:35:31.966Z,3.92
2023-02-26T11:36:32.230Z,3.91
2023-02-26T11:37:31.916Z,3.88
2023-02-26T11:38:32.148Z,3.86
2023-02-26T11:39:31.824Z,3.74
2023-02-26T11:40:31.796Z,3.69
2023-02-26T11:41:32.605Z,3.53
2023-02-26T11:42:31.720Z,3.44
2023-02-26T11:43:31.854Z,3.31
2023-02-26T11:44:31.660Z,3.25
2023-02-26T11:45:31.624Z,3.13
2023-02-26T11:46:31.845Z,3.22
2023-02-26T11:47:31.597Z,3.1
2023-02-26T11:48:31.547Z,3.21
2023-02-26T11:49:31.480Z,3.19
2023-02-26T11:50:31.439Z,3.26
2023-02-26T11:51:32.031Z,3.29
2023-02-26T11:52:31.379Z,3.41
2023-02-26T11:53:31.372Z,3.45
2023-02-26T11:54:31.301Z,3.58
2023-02-26T11:55:31.076Z,3.55
2023-02-26T11:56:31.239Z,3.48
2023-02-26T11:57:31.197Z,3.44
2023-02-26T11:58:31.172Z,3.44
2023-02-26T11:59:31.159Z,3.36
2023-02-26T12:00:31.083Z,3.51
2023-02-26T12:01:31.743Z,3.5
2023-02-26T12:02:31.161Z,3.65
2023-02-26T12:03:31.227Z,3.73
2023-02-26T12:04:32.548Z,3.8
2023-02-26T12:05:30.929Z,3.8
2023-02-26T12:06:30.883Z,3.78
2023-02-26T12:07:30.862Z,3.8
2023-02-26T12:08:30.821Z,3.88
2023-02-26T12:09:30.804Z,3.91
2023-02-26T12:10:30.742Z,3.91
2023-02-26T12:11:31.883Z,3.95
2023-02-26T12:12:30.674Z,4.04
2023-02-26T12:13:30.631Z,4.14
2023-02-26T12:14:30.721Z,4.26
2023-02-26T12:15:30.635Z,4.34
2023-02-26T12:16:30.520Z,4.42
2023-02-26T12:17:30.506Z,4.41
2023-02-26T12:18:30.221Z,4.44
2023-02-26T12:19:30.434Z,4.37
2023-02-26T12:20:30.414Z,4.3
2023-02-26T12:21:31.482Z,4.19
2023-02-26T12:22:30.326Z,4.05
2023-02-26T12:23:30.290Z,4.12
2023-02-26T12:24:30.268Z,4.05
2023-02-26T12:25:30.248Z,3.95
2023-02-26T12:26:30.186Z,4.02
2023-02-26T12:27:30.158Z,3.92
2023-02-26T12:28:30.123Z,3.83
2023-02-26T12:29:30.076Z,3.91
2023-02-26T12:30:30.074Z,3.95
2023-02-26T12:31:31.865Z,3.98
2023-02-26T12:32:30.301Z,4.02
2023-02-26T12:33:29.944Z,4.05
2023-02-26T12:34:29.912Z,3.96
2023-02-26T12:35:29.867Z,4.05
2023-02-26T12:36:47.833Z,3.99
2023-02-26T12:37:29.810Z,4.02
2023-02-26T12:38:29.785Z,4.06
2023-02-26T12:39:29.732Z,4.12
2023-02-26T12:40:29.720Z,4.12
2023-02-26T12:41:30.710Z,4.02
2023-02-26T12:42:29.634Z,4.02
2023-02-26T12:43:29.603Z,4.02
2023-02-26T12:44:29.565Z,3.95
2023-02-26T12:45:29.545Z,3.96
2023-02-26T12:46:29.413Z,3.96
2023-02-26T12:47:29.501Z,4.02
2023-02-26T12:48:29.434Z,4.05
2023-02-26T12:49:29.423Z,4.1
2023-02-26T12:50:29.500Z,4.17
2023-02-26T12:51:30.528Z,4.23
2023-02-26T12:52:29.318Z,4.19
2023-02-26T12:53:29.268Z,4.26
2023-02-26T12:54:28.972Z,4.34
2023-02-26T12:55:29.190Z,4.41
2023-02-26T12:56:29.151Z,4.48
2023-02-26T12:57:29.160Z,4.5
2023-02-26T12:58:29.086Z,4.5
2023-02-26T12:59:29.059Z,4.5
2023-02-26T13:00:29.108Z,4.44
2023-02-26T13:01:30.927Z,4.48
2023-02-26T13:02:28.941Z,4.45
2023-02-26T13:03:28.938Z,4.53
2023-02-26T13:04:28.890Z,4.5
2023-02-26T13:05:28.853Z,4.38
2023-02-26T13:06:28.805Z,4.31